Terminal Aerodrome Forecast
Issued by NWS Louisville, KY

Home | Current Version | Previous Version | Text Only | Print | Product List | Glossary On
Versions: 1 2 3 4 5 6 7 8 9 10 11 12 13 14 15 16 17 18 19 20 21 22
000
FTUS43 KLMK 261504 AAB
TAFSDF
TAF AMD
KSDF 261504Z 2615/2718 31010G17KT 5SM -SHRA BR FEW009 BKN020
      TEMPO 2615/2617 2SM -SHRA BR BKN009
     FM261800 29012KT P6SM SCT070
     FM270000 29006KT P6SM SKC=

USA.gov is the U.S. government's official web portal to all federal, state and local government web resources and services.